sensor_id;sensor_type;location;lat;lon;timestamp;temperature;humidity
23237;DHT22;11787;52.018;8.570;2023-08-24T00:02:01;18.60;99.90
23237;DHT22;11787;52.018;8.570;2023-08-24T00:04:27;18.50;99.90
23237;DHT22;11787;52.018;8.570;2023-08-24T00:06:53;18.50;99.90
23237;DHT22;11787;52.018;8.570;2023-08-24T00:09:18;18.50;99.90
23237;DHT22;11787;52.018;8.570;2023-08-24T00:11:44;18.50;99.90
23237;DHT22;11787;52.018;8.570;2023-08-24T00:14:10;18.40;99.90
23237;DHT22;11787;52.018;8.570;2023-08-24T00:16:35;18.50;99.90
23237;DHT22;11787;52.018;8.570;2023-08-24T00:19:01;18.40;99.90
23237;DHT22;11787;52.018;8.570;2023-08-24T00:21:26;18.50;99.90
23237;DHT22;11787;52.018;8.570;2023-08-24T00:23:52;18.40;99.90
23237;DHT22;11787;52.018;8.570;2023-08-24T00:26:18;18.40;99.90
23237;DHT22;11787;52.018;8.570;2023-08-24T00:28:45;18.40;99.90
23237;DHT22;11787;52.018;8.570;2023-08-24T00:31:11;18.30;99.90
23237;DHT22;11787;52.018;8.570;2023-08-24T00:33:37;18.30;99.90
23237;DHT22;11787;52.018;8.570;2023-08-24T00:36:04;18.30;99.90
23237;DHT22;11787;52.018;8.570;2023-08-24T00:38:30;18.20;99.90
23237;DHT22;11787;52.018;8.570;2023-08-24T00:40:57;18.20;99.90
23237;DHT22;11787;52.018;8.570;2023-08-24T00:43:25;18.20;99.90
23237;DHT22;11787;52.018;8.570;2023-08-24T00:45:51;18.10;99.90
23237;DHT22;11787;52.018;8.570;2023-08-24T00:48:19;18.10;99.90
23237;DHT22;11787;52.018;8.570;2023-08-24T00:50:45;18.10;99.90
23237;DHT22;11787;52.018;8.570;2023-08-24T00:53:11;18.00;99.90
23237;DHT22;11787;52.018;8.570;2023-08-24T00:55:37;18.00;99.90
23237;DHT22;11787;52.018;8.570;2023-08-24T00:58:03;18.00;99.90
23237;DHT22;11787;52.018;8.570;2023-08-24T01:00:29;18.00;99.90
23237;DHT22;11787;52.018;8.570;2023-08-24T01:02:55;18.00;99.90
23237;DHT22;11787;52.018;8.570;2023-08-24T01:05:21;18.00;99.90
23237;DHT22;11787;52.018;8.570;2023-08-24T01:07:47;18.00;99.90
23237;DHT22;11787;52.018;8.570;2023-08-24T01:10:13;17.90;99.90
23237;DHT22;11787;52.018;8.570;2023-08-24T01:13:02;17.90;99.90
23237;DHT22;11787;52.018;8.570;2023-08-24T01:18:15;17.90;99.90
23237;DHT22;11787;52.018;8.570;2023-08-24T01:20:42;17.90;99.90
23237;DHT22;11787;52.018;8.570;2023-08-24T01:23:28;17.80;99.90
23237;DHT22;11787;52.018;8.570;2023-08-24T01:28:37;17.80;99.90
23237;DHT22;11787;52.018;8.570;2023-08-24T01:31:06;17.80;99.90
23237;DHT22;11787;52.018;8.570;2023-08-24T01:33:33;17.80;99.90
23237;DHT22;11787;52.018;8.570;2023-08-24T01:35:59;17.80;99.90
23237;DHT22;11787;52.018;8.570;2023-08-24T01:38:25;17.70;99.90
23237;DHT22;11787;52.018;8.570;2023-08-24T01:41:11;17.70;99.90
23237;DHT22;11787;52.018;8.570;2023-08-24T01:43:39;17.70;99.90
23237;DHT22;11787;52.018;8.570;2023-08-24T01:46:07;17.60;99.90
23237;DHT22;11787;52.018;8.570;2023-08-24T01:48:33;17.60;99.90
23237;DHT22;11787;52.018;8.570;2023-08-24T01:51:00;17.60;99.90
23237;DHT22;11787;52.018;8.570;2023-08-24T01:53:27;17.50;99.90
23237;DHT22;11787;52.018;8.570;2023-08-24T01:55:53;17.50;99.90
23237;DHT22;11787;52.018;8.570;2023-08-24T01:58:20;17.40;99.90
23237;DHT22;11787;52.018;8.570;2023-08-24T02:00:45;17.30;99.90
23237;DHT22;11787;52.018;8.570;2023-08-24T02:03:11;17.40;99.90
23237;DHT22;11787;52.018;8.570;2023-08-24T02:05:37;17.30;99.90
23237;DHT22;11787;52.018;8.570;2023-08-24T02:08:02;17.30;99.90
23237;DHT22;11787;52.018;8.570;2023-08-24T02:10:28;17.20;99.90
23237;DHT22;11787;52.018;8.570;2023-08-24T02:12:54;17.20;99.90
23237;DHT22;11787;52.018;8.570;2023-08-24T02:15:19;17.20;99.90
23237;DHT22;11787;52.018;8.570;2023-08-24T02:17:45;17.20;99.90
23237;DHT22;11787;52.018;8.570;2023-08-24T02:20:11;17.10;99.90
23237;DHT22;11787;52.018;8.570;2023-08-24T02:22:37;17.10;99.90
23237;DHT22;11787;52.018;8.570;2023-08-24T02:25:03;17.20;99.90
23237;DHT22;11787;52.018;8.570;2023-08-24T02:27:31;17.10;99.90
23237;DHT22;11787;52.018;8.570;2023-08-24T02:29:56;17.20;99.90
23237;DHT22;11787;52.018;8.570;2023-08-24T02:32:22;17.10;99.90
23237;DHT22;11787;52.018;8.570;2023-08-24T02:34:48;17.10;99.90
23237;DHT22;11787;52.018;8.570;2023-08-24T02:37:13;17.10;99.90
23237;DHT22;11787;52.018;8.570;2023-08-24T02:39:39;17.10;99.90
23237;DHT22;11787;52.018;8.570;2023-08-24T02:42:05;16.90;99.90
23237;DHT22;11787;52.018;8.570;2023-08-24T02:44:30;17.00;99.90
23237;DHT22;11787;52.018;8.570;2023-08-24T02:46:56;16.90;99.90
23237;DHT22;11787;52.018;8.570;2023-08-24T02:49:22;17.00;99.90
23237;DHT22;11787;52.018;8.570;2023-08-24T02:51:48;17.00;99.90
23237;DHT22;11787;52.018;8.570;2023-08-24T02:54:14;17.00;99.90
23237;DHT22;11787;52.018;8.570;2023-08-24T02:56:40;17.00;99.90
23237;DHT22;11787;52.018;8.570;2023-08-24T02:59:06;17.10;99.90
23237;DHT22;11787;52.018;8.570;2023-08-24T03:01:31;17.00;99.90
23237;DHT22;11787;52.018;8.570;2023-08-24T03:03:57;16.90;99.90
23237;DHT22;11787;52.018;8.570;2023-08-24T03:06:23;16.90;99.90
23237;DHT22;11787;52.018;8.570;2023-08-24T03:08:51;16.90;99.90
23237;DHT22;11787;52.018;8.570;2023-08-24T03:11:17;16.90;99.90
23237;DHT22;11787;52.018;8.570;2023-08-24T03:13:43;16.80;99.90
23237;DHT22;11787;52.018;8.570;2023-08-24T03:16:08;16.80;99.90
23237;DHT22;11787;52.018;8.570;2023-08-24T03:18:34;16.80;99.90
23237;DHT22;11787;52.018;8.570;2023-08-24T03:21:01;16.80;99.90
23237;DHT22;11787;52.018;8.570;2023-08-24T03:23:27;16.80;99.90
23237;DHT22;11787;52.018;8.570;2023-08-24T03:25:53;16.80;99.90
23237;DHT22;11787;52.018;8.570;2023-08-24T03:28:18;16.80;99.90
23237;DHT22;11787;52.018;8.570;2023-08-24T03:30:49;16.80;99.90
23237;DHT22;11787;52.018;8.570;2023-08-24T03:33:15;16.80;99.90
23237;DHT22;11787;52.018;8.570;2023-08-24T03:35:41;16.80;99.90
23237;DHT22;11787;52.018;8.570;2023-08-24T03:38:07;16.80;99.90
23237;DHT22;11787;52.018;8.570;2023-08-24T03:40:32;16.80;99.90
23237;DHT22;11787;52.018;8.570;2023-08-24T03:42:58;16.80;99.90
23237;DHT22;11787;52.018;8.570;2023-08-24T03:45:23;16.80;99.90
23237;DHT22;11787;52.018;8.570;2023-08-24T03:47:49;16.80;99.90
23237;DHT22;11787;52.018;8.570;2023-08-24T03:50:16;16.70;99.90
23237;DHT22;11787;52.018;8.570;2023-08-24T03:52:42;16.70;99.90
23237;DHT22;11787;52.018;8.570;2023-08-24T03:55:08;16.70;99.90
23237;DHT22;11787;52.018;8.570;2023-08-24T03:57:33;16.70;99.90
23237;DHT22;11787;52.018;8.570;2023-08-24T03:59:59;16.70;99.90
23237;DHT22;11787;52.018;8.570;2023-08-24T04:02:25;16.70;99.90
23237;DHT22;11787;52.018;8.570;2023-08-24T04:04:50;16.70;99.90
23237;DHT22;11787;52.018;8.570;2023-08-24T04:07:16;16.70;99.90
23237;DHT22;11787;52.018;8.570;2023-08-24T04:09:42;16.70;99.90
23237;DHT22;11787;52.018;8.570;2023-08-24T04:12:08;16.70;99.90
23237;DHT22;11787;52.018;8.570;2023-08-24T04:14:33;16.70;99.90
23237;DHT22;11787;52.018;8.570;2023-08-24T04:16:59;16.70;99.90
23237;DHT22;11787;52.018;8.570;2023-08-24T04:19:25;16.70;99.90
23237;DHT22;11787;52.018;8.570;2023-08-24T04:21:50;16.70;99.90
23237;DHT22;11787;52.018;8.570;2023-08-24T04:24:16;16.80;99.90
23237;DHT22;11787;52.018;8.570;2023-08-24T04:26:41;16.80;99.90
23237;DHT22;11787;52.018;8.570;2023-08-24T04:29:07;16.80;99.90
23237;DHT22;11787;52.018;8.570;2023-08-24T04:31:32;16.90;99.90
23237;DHT22;11787;52.018;8.570;2023-08-24T04:33:58;16.90;99.90
23237;DHT22;11787;52.018;8.570;2023-08-24T04:36:23;16.90;99.90
23237;DHT22;11787;52.018;8.570;2023-08-24T04:38:49;16.90;99.90
23237;DHT22;11787;52.018;8.570;2023-08-24T04:41:15;16.90;99.90
23237;DHT22;11787;52.018;8.570;2023-08-24T04:43:40;16.90;99.90
23237;DHT22;11787;52.018;8.570;2023-08-24T04:46:06;16.90;99.90
23237;DHT22;11787;52.018;8.570;2023-08-24T04:48:32;16.80;99.90
23237;DHT22;11787;52.018;8.570;2023-08-24T04:51:00;16.80;99.90
23237;DHT22;11787;52.018;8.570;2023-08-24T04:53:26;16.90;99.90
23237;DHT22;11787;52.018;8.570;2023-08-24T04:55:51;16.90;99.90
23237;DHT22;11787;52.018;8.570;2023-08-24T04:58:17;17.10;99.90
23237;DHT22;11787;52.018;8.570;2023-08-24T05:00:43;17.10;99.90
23237;DHT22;11787;52.018;8.570;2023-08-24T05:03:09;17.10;99.90
23237;DHT22;11787;52.018;8.570;2023-08-24T05:05:35;17.00;99.90
23237;DHT22;11787;52.018;8.570;2023-08-24T05:08:02;17.00;99.90
23237;DHT22;11787;52.018;8.570;2023-08-24T05:10:32;17.10;99.90
23237;DHT22;11787;52.018;8.570;2023-08-24T05:12:59;17.10;99.90
23237;DHT22;11787;52.018;8.570;2023-08-24T05:15:25;17.20;99.90
23237;DHT22;11787;52.018;8.570;2023-08-24T05:17:51;17.20;99.90
23237;DHT22;11787;52.018;8.570;2023-08-24T05:20:20;17.20;99.90
23237;DHT22;11787;52.018;8.570;2023-08-24T05:22:46;17.30;99.90
23237;DHT22;11787;52.018;8.570;2023-08-24T05:25:11;17.30;99.90
23237;DHT22;11787;52.018;8.570;2023-08-24T05:27:37;17.40;99.90
23237;DHT22;11787;52.018;8.570;2023-08-24T05:30:03;17.40;99.90
23237;DHT22;11787;52.018;8.570;2023-08-24T05:32:31;17.40;99.90
23237;DHT22;11787;52.018;8.570;2023-08-24T05:34:56;17.40;99.90
23237;DHT22;11787;52.018;8.570;2023-08-24T05:37:23;17.40;99.90
23237;DHT22;11787;52.018;8.570;2023-08-24T05:39:48;17.40;99.90
23237;DHT22;11787;52.018;8.570;2023-08-24T05:42:14;17.50;99.90
23237;DHT22;11787;52.018;8.570;2023-08-24T05:44:39;17.50;99.90
23237;DHT22;11787;52.018;8.570;2023-08-24T05:47:05;17.50;99.90
23237;DHT22;11787;52.018;8.570;2023-08-24T05:49:31;17.50;99.90
23237;DHT22;11787;52.018;8.570;2023-08-24T05:51:56;17.50;99.90
23237;DHT22;11787;52.018;8.570;2023-08-24T05:54:22;17.60;99.90
23237;DHT22;11787;52.018;8.570;2023-08-24T05:56:48;17.70;99.90
23237;DHT22;11787;52.018;8.570;2023-08-24T05:59:14;17.70;99.90
23237;DHT22;11787;52.018;8.570;2023-08-24T06:01:40;17.70;99.90
23237;DHT22;11787;52.018;8.570;2023-08-24T06:04:07;17.70;99.90
23237;DHT22;11787;52.018;8.570;2023-08-24T06:06:32;17.70;99.90
23237;DHT22;11787;52.018;8.570;2023-08-24T06:08:58;17.70;99.90
23237;DHT22;11787;52.018;8.570;2023-08-24T06:11:23;17.80;99.90
23237;DHT22;11787;52.018;8.570;2023-08-24T06:13:49;17.90;99.90
23237;DHT22;11787;52.018;8.570;2023-08-24T06:16:15;17.80;99.90
23237;DHT22;11787;52.018;8.570;2023-08-24T06:18:40;17.80;99.90
23237;DHT22;11787;52.018;8.570;2023-08-24T06:21:05;17.80;99.90
23237;DHT22;11787;52.018;8.570;2023-08-24T06:23:31;17.90;99.90
23237;DHT22;11787;52.018;8.570;2023-08-24T06:25:56;17.80;99.90
23237;DHT22;11787;52.018;8.570;2023-08-24T06:28:22;17.90;99.90
23237;DHT22;11787;52.018;8.570;2023-08-24T06:30:47;17.90;99.90
23237;DHT22;11787;52.018;8.570;2023-08-24T06:33:13;17.90;99.90
23237;DHT22;11787;52.018;8.570;2023-08-24T06:35:38;18.00;99.90
23237;DHT22;11787;52.018;8.570;2023-08-24T06:38:04;18.00;99.90
23237;DHT22;11787;52.018;8.570;2023-08-24T06:40:30;18.10;99.90
23237;DHT22;11787;52.018;8.570;2023-08-24T06:42:56;18.10;99.90
23237;DHT22;11787;52.018;8.570;2023-08-24T06:45:22;18.20;99.90
23237;DHT22;11787;52.018;8.570;2023-08-24T06:47:48;18.20;99.90
23237;DHT22;11787;52.018;8.570;2023-08-24T06:50:14;18.30;99.90
23237;DHT22;11787;52.018;8.570;2023-08-24T06:52:41;18.30;99.90
23237;DHT22;11787;52.018;8.570;2023-08-24T06:55:08;18.30;99.90
23237;DHT22;11787;52.018;8.570;2023-08-24T06:57:35;18.40;99.90
23237;DHT22;11787;52.018;8.570;2023-08-24T07:00:01;18.50;99.90
23237;DHT22;11787;52.018;8.570;2023-08-24T07:02:26;18.50;99.90
23237;DHT22;11787;52.018;8.570;2023-08-24T07:04:52;18.60;99.90
23237;DHT22;11787;52.018;8.570;2023-08-24T07:07:17;18.60;99.90
23237;DHT22;11787;52.018;8.570;2023-08-24T07:09:43;18.70;99.90
23237;DHT22;11787;52.018;8.570;2023-08-24T07:12:09;18.70;99.90
23237;DHT22;11787;52.018;8.570;2023-08-24T07:14:35;18.70;99.90
23237;DHT22;11787;52.018;8.570;2023-08-24T07:17:01;18.70;99.90
23237;DHT22;11787;52.018;8.570;2023-08-24T07:19:26;18.90;99.90
23237;DHT22;11787;52.018;8.570;2023-08-24T07:21:52;19.00;99.90
23237;DHT22;11787;52.018;8.570;2023-08-24T07:24:18;19.10;99.90
23237;DHT22;11787;52.018;8.570;2023-08-24T07:26:46;19.10;99.90
23237;DHT22;11787;52.018;8.570;2023-08-24T07:29:12;19.10;99.90
23237;DHT22;11787;52.018;8.570;2023-08-24T07:31:37;19.20;99.90
23237;DHT22;11787;52.018;8.570;2023-08-24T07:34:03;19.20;99.90
23237;DHT22;11787;52.018;8.570;2023-08-24T07:36:31;19.30;99.90
23237;DHT22;11787;52.018;8.570;2023-08-24T07:38:57;19.40;99.90
23237;DHT22;11787;52.018;8.570;2023-08-24T07:41:23;19.50;99.90
23237;DHT22;11787;52.018;8.570;2023-08-24T07:43:48;19.60;99.90
23237;DHT22;11787;52.018;8.570;2023-08-24T07:46:14;19.60;99.90
23237;DHT22;11787;52.018;8.570;2023-08-24T07:48:39;19.70;99.90
23237;DHT22;11787;52.018;8.570;2023-08-24T07:51:05;19.80;99.90
23237;DHT22;11787;52.018;8.570;2023-08-24T07:53:30;19.80;99.90
23237;DHT22;11787;52.018;8.570;2023-08-24T07:55:58;19.80;99.90
23237;DHT22;11787;52.018;8.570;2023-08-24T07:58:24;19.80;99.90
23237;DHT22;11787;52.018;8.570;2023-08-24T08:00:50;19.80;99.90
23237;DHT22;11787;52.018;8.570;2023-08-24T08:03:17;19.90;99.90
23237;DHT22;11787;52.018;8.570;2023-08-24T08:05:43;20.00;99.90
23237;DHT22;11787;52.018;8.570;2023-08-24T08:08:08;20.10;99.90
23237;DHT22;11787;52.018;8.570;2023-08-24T08:10:33;20.20;99.90
23237;DHT22;11787;52.018;8.570;2023-08-24T08:12:59;20.30;99.90
23237;DHT22;11787;52.018;8.570;2023-08-24T08:15:24;20.30;99.90
23237;DHT22;11787;52.018;8.570;2023-08-24T08:17:50;20.40;99.90
23237;DHT22;11787;52.018;8.570;2023-08-24T08:20:16;20.50;99.90
23237;DHT22;11787;52.018;8.570;2023-08-24T08:22:41;20.60;99.90
23237;DHT22;11787;52.018;8.570;2023-08-24T08:25:07;20.70;99.90
23237;DHT22;11787;52.018;8.570;2023-08-24T08:27:32;20.80;99.90
23237;DHT22;11787;52.018;8.570;2023-08-24T08:29:58;20.90;99.90
23237;DHT22;11787;52.018;8.570;2023-08-24T08:32:24;21.00;99.90
23237;DHT22;11787;52.018;8.570;2023-08-24T08:34:55;21.00;99.90
23237;DHT22;11787;52.018;8.570;2023-08-24T08:37:25;21.20;99.90
23237;DHT22;11787;52.018;8.570;2023-08-24T08:39:50;21.40;99.90
23237;DHT22;11787;52.018;8.570;2023-08-24T08:42:16;21.50;99.90
23237;DHT22;11787;52.018;8.570;2023-08-24T08:44:42;21.70;99.90
23237;DHT22;11787;52.018;8.570;2023-08-24T08:47:09;21.80;99.90
23237;DHT22;11787;52.018;8.570;2023-08-24T08:49:35;22.00;99.90
23237;DHT22;11787;52.018;8.570;2023-08-24T08:52:02;22.20;99.90
23237;DHT22;11787;52.018;8.570;2023-08-24T08:54:29;22.50;99.90
23237;DHT22;11787;52.018;8.570;2023-08-24T08:56:54;22.70;99.90
23237;DHT22;11787;52.018;8.570;2023-08-24T08:59:20;23.00;99.90
23237;DHT22;11787;52.018;8.570;2023-08-24T09:01:46;23.20;99.90
23237;DHT22;11787;52.018;8.570;2023-08-24T09:04:12;23.40;99.90
23237;DHT22;11787;52.018;8.570;2023-08-24T09:06:38;23.50;99.90
23237;DHT22;11787;52.018;8.570;2023-08-24T09:09:04;23.60;99.90
23237;DHT22;11787;52.018;8.570;2023-08-24T09:11:30;23.60;99.90
23237;DHT22;11787;52.018;8.570;2023-08-24T09:13:55;23.80;99.90
23237;DHT22;11787;52.018;8.570;2023-08-24T09:16:21;23.90;99.90
23237;DHT22;11787;52.018;8.570;2023-08-24T09:18:47;24.10;99.90
23237;DHT22;11787;52.018;8.570;2023-08-24T09:21:13;24.30;99.90
23237;DHT22;11787;52.018;8.570;2023-08-24T09:23:51;24.30;99.90
23237;DHT22;11787;52.018;8.570;2023-08-24T09:26:18;24.40;99.90
23237;DHT22;11787;52.018;8.570;2023-08-24T09:28:52;24.50;99.90
23237;DHT22;11787;52.018;8.570;2023-08-24T09:31:17;24.70;99.90
23237;DHT22;11787;52.018;8.570;2023-08-24T09:33:43;25.00;99.90
23237;DHT22;11787;52.018;8.570;2023-08-24T09:36:10;25.50;99.90
23237;DHT22;11787;52.018;8.570;2023-08-24T09:38:45;25.90;99.90
23237;DHT22;11787;52.018;8.570;2023-08-24T09:41:11;25.90;99.90
23237;DHT22;11787;52.018;8.570;2023-08-24T09:43:36;25.90;99.90
23237;DHT22;11787;52.018;8.570;2023-08-24T09:46:02;26.00;99.90
23237;DHT22;11787;52.018;8.570;2023-08-24T09:48:29;26.00;99.90
23237;DHT22;11787;52.018;8.570;2023-08-24T09:50:56;26.60;99.90
23237;DHT22;11787;52.018;8.570;2023-08-24T09:53:22;27.30;99.90
23237;DHT22;11787;52.018;8.570;2023-08-24T09:56:01;27.20;99.90
23237;DHT22;11787;52.018;8.570;2023-08-24T09:58:27;27.20;99.90
23237;DHT22;11787;52.018;8.570;2023-08-24T10:00:52;27.30;99.90
23237;DHT22;11787;52.018;8.570;2023-08-24T10:03:19;27.50;99.90
23237;DHT22;11787;52.018;8.570;2023-08-24T10:05:53;27.60;99.90
23237;DHT22;11787;52.018;8.570;2023-08-24T10:08:20;27.70;99.90
23237;DHT22;11787;52.018;8.570;2023-08-24T10:10:46;27.80;99.90
23237;DHT22;11787;52.018;8.570;2023-08-24T10:13:20;28.00;99.90
23237;DHT22;11787;52.018;8.570;2023-08-24T10:15:47;28.10;99.90
23237;DHT22;11787;52.018;8.570;2023-08-24T10:18:14;28.10;99.90
23237;DHT22;11787;52.018;8.570;2023-08-24T10:20:40;28.10;99.90
23237;DHT22;11787;52.018;8.570;2023-08-24T10:23:08;28.20;99.90
23237;DHT22;11787;52.018;8.570;2023-08-24T10:25:33;28.70;99.90
23237;DHT22;11787;52.018;8.570;2023-08-24T10:27:59;28.70;99.90
23237;DHT22;11787;52.018;8.570;2023-08-24T10:30:25;28.80;99.90
23237;DHT22;11787;52.018;8.570;2023-08-24T10:32:51;28.80;99.90
23237;DHT22;11787;52.018;8.570;2023-08-24T10:35:19;28.80;99.90
23237;DHT22;11787;52.018;8.570;2023-08-24T10:37:45;28.70;99.90
23237;DHT22;11787;52.018;8.570;2023-08-24T10:40:11;28.70;99.90
23237;DHT22;11787;52.018;8.570;2023-08-24T10:42:46;28.50;99.90
23237;DHT22;11787;52.018;8.570;2023-08-24T10:45:13;28.50;99.90
23237;DHT22;11787;52.018;8.570;2023-08-24T10:47:45;28.40;99.90
23237;DHT22;11787;52.018;8.570;2023-08-24T10:50:11;28.70;99.90
23237;DHT22;11787;52.018;8.570;2023-08-24T10:52:37;28.70;99.90
23237;DHT22;11787;52.018;8.570;2023-08-24T10:55:05;29.00;99.90
23237;DHT22;11787;52.018;8.570;2023-08-24T10:57:47;29.40;99.90
23237;DHT22;11787;52.018;8.570;2023-08-24T11:00:20;29.20;99.90
23237;DHT22;11787;52.018;8.570;2023-08-24T11:02:49;29.60;99.90
23237;DHT22;11787;52.018;8.570;2023-08-24T11:08:02;29.90;99.90
23237;DHT22;11787;52.018;8.570;2023-08-24T11:13:11;30.70;99.90
23237;DHT22;11787;52.018;8.570;2023-08-24T11:18:24;31.20;99.90
23237;DHT22;11787;52.018;8.570;2023-08-24T11:21:05;31.00;99.90
23237;DHT22;11787;52.018;8.570;2023-08-24T11:23:30;31.00;99.90
23237;DHT22;11787;52.018;8.570;2023-08-24T11:25:58;30.80;99.90
23237;DHT22;11787;52.018;8.570;2023-08-24T11:28:29;30.50;99.90
23237;DHT22;11787;52.018;8.570;2023-08-24T11:30:56;30.60;99.90
23237;DHT22;11787;52.018;8.570;2023-08-24T11:33:30;30.60;99.90
23237;DHT22;11787;52.018;8.570;2023-08-24T11:35:56;30.90;99.90
23237;DHT22;11787;52.018;8.570;2023-08-24T11:38:21;31.30;99.90
23237;DHT22;11787;52.018;8.570;2023-08-24T11:40:47;31.20;99.90
23237;DHT22;11787;52.018;8.570;2023-08-24T11:43:23;31.60;99.90
23237;DHT22;11787;52.018;8.570;2023-08-24T11:45:49;31.90;99.90
23237;DHT22;11787;52.018;8.570;2023-08-24T11:48:15;31.60;99.90
23237;DHT22;11787;52.018;8.570;2023-08-24T11:50:40;31.60;99.90
23237;DHT22;11787;52.018;8.570;2023-08-24T11:53:07;31.40;99.90
23237;DHT22;11787;52.018;8.570;2023-08-24T11:55:32;31.70;99.90
23237;DHT22;11787;52.018;8.570;2023-08-24T11:57:59;31.90;99.90
23237;DHT22;11787;52.018;8.570;2023-08-24T12:00:25;32.00;99.90
23237;DHT22;11787;52.018;8.570;2023-08-24T12:02:52;31.70;99.90
23237;DHT22;11787;52.018;8.570;2023-08-24T12:05:24;31.50;99.90
23237;DHT22;11787;52.018;8.570;2023-08-24T12:07:54;31.50;99.90
23237;DHT22;11787;52.018;8.570;2023-08-24T12:10:20;31.50;99.90
23237;DHT22;11787;52.018;8.570;2023-08-24T12:12:46;31.60;99.90
23237;DHT22;11787;52.018;8.570;2023-08-24T12:15:19;31.60;99.90
23237;DHT22;11787;52.018;8.570;2023-08-24T12:17:48;31.40;99.90
23237;DHT22;11787;52.018;8.570;2023-08-24T12:20:23;31.40;99.90
23237;DHT22;11787;52.018;8.570;2023-08-24T12:22:55;31.10;99.90
23237;DHT22;11787;52.018;8.570;2023-08-24T12:25:24;31.00;99.90
23237;DHT22;11787;52.018;8.570;2023-08-24T12:30:51;30.90;99.90
23237;DHT22;11787;52.018;8.570;2023-08-24T12:35:49;30.50;99.90
23237;DHT22;11787;52.018;8.570;2023-08-24T12:38:14;30.60;99.90
23237;DHT22;11787;52.018;8.570;2023-08-24T12:40:40;30.70;99.90
23237;DHT22;11787;52.018;8.570;2023-08-24T12:43:06;30.70;99.90
23237;DHT22;11787;52.018;8.570;2023-08-24T12:45:31;30.60;99.90
23237;DHT22;11787;52.018;8.570;2023-08-24T12:47:57;30.40;99.90
23237;DHT22;11787;52.018;8.570;2023-08-24T12:50:22;30.30;99.90
23237;DHT22;11787;52.018;8.570;2023-08-24T12:52:48;30.30;99.90
23237;DHT22;11787;52.018;8.570;2023-08-24T12:55:14;30.10;99.90
23237;DHT22;11787;52.018;8.570;2023-08-24T12:57:40;30.00;99.90
23237;DHT22;11787;52.018;8.570;2023-08-24T13:00:05;30.00;99.90
23237;DHT22;11787;52.018;8.570;2023-08-24T13:02:33;30.00;99.90
23237;DHT22;11787;52.018;8.570;2023-08-24T13:04:59;29.90;99.90
23237;DHT22;11787;52.018;8.570;2023-08-24T13:07:26;29.90;99.90
23237;DHT22;11787;52.018;8.570;2023-08-24T13:09:52;30.00;99.90
23237;DHT22;11787;52.018;8.570;2023-08-24T13:12:17;29.90;99.90
23237;DHT22;11787;52.018;8.570;2023-08-24T13:14:42;30.10;99.90
23237;DHT22;11787;52.018;8.570;2023-08-24T13:17:08;30.20;99.90
23237;DHT22;11787;52.018;8.570;2023-08-24T13:19:33;30.30;99.90
23237;DHT22;11787;52.018;8.570;2023-08-24T13:21:59;30.50;99.90
23237;DHT22;11787;52.018;8.570;2023-08-24T13:24:24;30.50;99.90
23237;DHT22;11787;52.018;8.570;2023-08-24T13:26:50;30.40;99.90
23237;DHT22;11787;52.018;8.570;2023-08-24T13:29:15;30.30;99.90
23237;DHT22;11787;52.018;8.570;2023-08-24T13:31:41;30.30;99.90
23237;DHT22;11787;52.018;8.570;2023-08-24T13:34:06;30.30;99.90
23237;DHT22;11787;52.018;8.570;2023-08-24T13:36:33;30.30;99.90
23237;DHT22;11787;52.018;8.570;2023-08-24T13:38:59;30.30;99.90
23237;DHT22;11787;52.018;8.570;2023-08-24T13:41:24;30.50;99.90
23237;DHT22;11787;52.018;8.570;2023-08-24T13:43:50;30.50;99.90
23237;DHT22;11787;52.018;8.570;2023-08-24T13:46:15;30.60;99.90
23237;DHT22;11787;52.018;8.570;2023-08-24T13:48:41;30.70;99.90
23237;DHT22;11787;52.018;8.570;2023-08-24T13:51:06;30.70;99.90
23237;DHT22;11787;52.018;8.570;2023-08-24T13:53:33;30.50;99.90
23237;DHT22;11787;52.018;8.570;2023-08-24T13:55:58;30.50;99.90
23237;DHT22;11787;52.018;8.570;2023-08-24T13:58:24;30.50;99.90
23237;DHT22;11787;52.018;8.570;2023-08-24T14:00:56;30.30;99.90
23237;DHT22;11787;52.018;8.570;2023-08-24T14:03:22;30.20;99.90
23237;DHT22;11787;52.018;8.570;2023-08-24T14:05:47;30.00;99.90
23237;DHT22;11787;52.018;8.570;2023-08-24T14:08:15;30.00;99.90
23237;DHT22;11787;52.018;8.570;2023-08-24T14:10:40;29.90;99.90
23237;DHT22;11787;52.018;8.570;2023-08-24T14:13:06;29.90;99.90
23237;DHT22;11787;52.018;8.570;2023-08-24T14:15:31;29.80;99.90
23237;DHT22;11787;52.018;8.570;2023-08-24T14:17:57;29.80;99.90
23237;DHT22;11787;52.018;8.570;2023-08-24T14:20:22;29.60;99.90
23237;DHT22;11787;52.018;8.570;2023-08-24T14:22:48;29.60;99.90
23237;DHT22;11787;52.018;8.570;2023-08-24T14:25:14;29.50;99.90
23237;DHT22;11787;52.018;8.570;2023-08-24T14:27:39;29.40;99.90
23237;DHT22;11787;52.018;8.570;2023-08-24T14:30:07;29.40;99.90
23237;DHT22;11787;52.018;8.570;2023-08-24T14:32:32;29.30;99.90
23237;DHT22;11787;52.018;8.570;2023-08-24T14:34:58;29.20;99.90
23237;DHT22;11787;52.018;8.570;2023-08-24T14:37:24;29.10;99.90
23237;DHT22;11787;52.018;8.570;2023-08-24T14:39:49;28.90;99.90
23237;DHT22;11787;52.018;8.570;2023-08-24T14:42:15;28.90;99.90
23237;DHT22;11787;52.018;8.570;2023-08-24T14:44:40;28.70;99.90
23237;DHT22;11787;52.018;8.570;2023-08-24T14:47:06;28.60;99.90
23237;DHT22;11787;52.018;8.570;2023-08-24T14:49:31;28.50;99.90
23237;DHT22;11787;52.018;8.570;2023-08-24T14:51:57;28.40;99.90
23237;DHT22;11787;52.018;8.570;2023-08-24T14:54:23;28.30;99.90
23237;DHT22;11787;52.018;8.570;2023-08-24T14:56:48;28.30;99.90
23237;DHT22;11787;52.018;8.570;2023-08-24T14:59:14;28.30;99.90
23237;DHT22;11787;52.018;8.570;2023-08-24T15:01:39;28.20;99.90
23237;DHT22;11787;52.018;8.570;2023-08-24T15:04:05;28.10;99.90
23237;DHT22;11787;52.018;8.570;2023-08-24T15:06:30;28.00;99.90
23237;DHT22;11787;52.018;8.570;2023-08-24T15:08:55;27.80;99.90
23237;DHT22;11787;52.018;8.570;2023-08-24T15:11:21;27.70;99.90
23237;DHT22;11787;52.018;8.570;2023-08-24T15:13:47;27.50;99.90
23237;DHT22;11787;52.018;8.570;2023-08-24T15:16:12;27.40;99.90
23237;DHT22;11787;52.018;8.570;2023-08-24T15:18:38;27.30;99.90
23237;DHT22;11787;52.018;8.570;2023-08-24T15:21:03;27.20;99.90
23237;DHT22;11787;52.018;8.570;2023-08-24T15:23:30;27.10;99.90
23237;DHT22;11787;52.018;8.570;2023-08-24T15:25:57;27.10;99.90
23237;DHT22;11787;52.018;8.570;2023-08-24T15:28:23;27.00;99.90
23237;DHT22;11787;52.018;8.570;2023-08-24T15:30:48;27.00;99.90
23237;DHT22;11787;52.018;8.570;2023-08-24T15:33:14;27.00;99.90
23237;DHT22;11787;52.018;8.570;2023-08-24T15:35:40;27.00;99.90
23237;DHT22;11787;52.018;8.570;2023-08-24T15:38:06;27.10;99.90
23237;DHT22;11787;52.018;8.570;2023-08-24T15:40:32;27.10;99.90
23237;DHT22;11787;52.018;8.570;2023-08-24T15:42:57;27.20;99.90
23237;DHT22;11787;52.018;8.570;2023-08-24T15:45:23;27.20;99.90